createdAt,value
2018-03-02T00:00:53.520Z,36.78
2018-03-02T00:03:23.157Z,54.55
2018-03-02T00:05:52.296Z,107.80
2018-03-02T00:08:21.314Z,124.57
2018-03-02T00:10:50.237Z,191.18
2018-03-02T00:13:20.086Z,135.88
2018-03-02T00:15:48.850Z,52.25
2018-03-02T00:18:17.723Z,56.67
2018-03-02T00:20:46.571Z,66.95
2018-03-02T00:23:15.740Z,31.27
2018-03-02T00:25:44.736Z,29.02
2018-03-02T00:28:13.471Z,29.15
2018-03-02T00:30:42.387Z,111.80
2018-03-02T00:33:11.222Z,73.15
2018-03-02T00:35:40.858Z,122.65
2018-03-02T00:38:09.702Z,151.18
2018-03-02T00:40:38.637Z,62.42
2018-03-02T00:43:07.532Z,49.42
2018-03-02T00:45:37.152Z,53.17
2018-03-02T00:48:06.019Z,51.65
2018-03-02T00:50:34.942Z,47.53
2018-03-02T00:53:05.016Z,118.95
2018-03-02T00:55:34.880Z,88.03
2018-03-02T00:58:03.762Z,66.18
2018-03-02T01:00:33.374Z,79.97
2018-03-02T01:03:02.286Z,75.82
2018-03-02T01:05:31.098Z,41.80
2018-03-02T01:07:59.919Z,38.33
2018-03-02T01:10:28.699Z,34.10
2018-03-02T01:12:58.871Z,36.80
2018-03-02T01:15:27.980Z,33.92
2018-03-02T01:17:57.026Z,35.00
2018-03-02T01:20:25.824Z,34.50
2018-03-02T01:22:54.720Z,39.80
2018-03-02T01:25:24.339Z,38.80
2018-03-02T01:27:53.238Z,34.38
2018-03-02T01:30:22.901Z,42.75
2018-03-02T01:32:52.008Z,32.95
2018-03-02T01:35:21.545Z,36.85
2018-03-02T01:37:50.366Z,37.33
2018-03-02T01:40:19.166Z,40.17
2018-03-02T01:42:48.262Z,51.58
2018-03-02T01:45:17.226Z,46.30
2018-03-02T01:47:46.142Z,56.20
2018-03-02T01:50:14.976Z,47.05
2018-03-02T01:52:43.816Z,45.00
2018-03-02T01:55:12.630Z,40.53
2018-03-02T01:57:41.739Z,41.28
2018-03-02T02:00:10.629Z,46.80
2018-03-02T02:02:39.538Z,39.30
2018-03-02T02:05:09.367Z,42.38
2018-03-02T02:07:38.281Z,39.47
2018-03-02T02:10:07.967Z,43.33
2018-03-02T02:12:37.139Z,40.40
2018-03-02T02:15:06.683Z,37.30
2018-03-02T02:17:35.609Z,37.53
2018-03-02T02:20:05.239Z,38.40
2018-03-02T02:22:35.070Z,36.05
2018-03-02T02:25:04.067Z,40.33
2018-03-02T02:27:33.241Z,38.75
2018-03-02T02:30:02.026Z,39.00
2018-03-02T02:32:31.616Z,44.40
2018-03-02T02:35:00.435Z,44.88
2018-03-02T02:37:29.522Z,42.40
2018-03-02T02:39:59.142Z,44.85
2018-03-02T02:42:28.082Z,46.13
2018-03-02T02:44:56.945Z,42.67
2018-03-02T02:47:25.766Z,45.47
2018-03-02T02:49:54.586Z,40.75
2018-03-02T02:52:23.485Z,42.95
2018-03-02T02:54:52.236Z,45.10
2018-03-02T02:57:21.214Z,39.20
2018-03-02T02:59:50.045Z,39.80
2018-03-02T03:02:19.683Z,38.60
2018-03-02T03:04:48.436Z,36.20
2018-03-02T03:07:17.523Z,37.95
2018-03-02T03:09:47.326Z,35.30
2018-03-02T03:12:16.330Z,34.00
2018-03-02T03:14:45.219Z,41.20
2018-03-02T03:17:15.134Z,36.42
2018-03-02T03:19:44.175Z,33.88
2018-03-02T03:22:13.102Z,35.20
2018-03-02T03:24:42.030Z,37.88
2018-03-02T03:27:11.930Z,44.35
2018-03-02T03:29:41.055Z,36.47
2018-03-02T03:32:10.122Z,34.65
2018-03-02T03:34:38.863Z,37.50
2018-03-02T03:37:07.884Z,32.55
2018-03-02T03:39:37.481Z,36.58
2018-03-02T03:42:06.542Z,38.13
2018-03-02T03:44:36.409Z,36.55
2018-03-02T03:47:05.202Z,36.30
2018-03-02T03:49:34.050Z,43.00
2018-03-02T03:52:02.822Z,47.62
2018-03-02T03:54:31.616Z,60.07
2018-03-02T03:57:00.363Z,46.05
2018-03-02T03:59:30.112Z,37.25
2018-03-02T04:01:59.194Z,36.75
2018-03-02T04:04:28.040Z,39.30
2018-03-02T04:06:56.920Z,37.92
2018-03-02T04:09:26.195Z,37.25
2018-03-02T04:11:55.030Z,36.13
2018-03-02T04:14:24.785Z,35.40
2018-03-02T04:16:53.893Z,42.55
2018-03-02T04:19:22.660Z,41.33
2018-03-02T04:21:51.481Z,45.78
2018-03-02T04:24:20.477Z,48.87
2018-03-02T04:26:49.700Z,42.62
2018-03-02T04:29:18.575Z,40.42
2018-03-02T04:31:47.805Z,40.65
2018-03-02T04:34:16.704Z,85.80
2018-03-02T04:36:45.882Z,85.07
2018-03-02T04:39:14.870Z,74.93
2018-03-02T04:41:43.898Z,61.97
2018-03-02T04:44:12.771Z,45.33
2018-03-02T04:46:41.640Z,41.33
2018-03-02T04:49:11.236Z,41.78
2018-03-02T04:51:40.887Z,31.48
2018-03-02T04:54:10.370Z,34.58
2018-03-02T04:56:39.237Z,32.92
2018-03-02T04:59:08.080Z,32.53
2018-03-02T05:01:37.080Z,35.50
2018-03-02T05:04:06.027Z,39.28
2018-03-02T05:06:35.023Z,41.03
2018-03-02T05:09:04.225Z,45.63
2018-03-02T05:11:33.117Z,42.28
2018-03-02T05:14:02.046Z,40.80
2018-03-02T05:16:30.909Z,40.15
2018-03-02T05:18:59.817Z,49.88
2018-03-02T05:21:28.907Z,44.00
2018-03-02T05:23:58.796Z,39.22
2018-03-02T05:26:28.447Z,42.92
2018-03-02T05:28:57.315Z,45.70
2018-03-02T05:31:26.221Z,49.17
2018-03-02T05:33:55.800Z,57.35
2018-03-02T05:36:25.505Z,58.80
2018-03-02T05:38:54.489Z,53.45
2018-03-02T05:41:23.282Z,47.80
2018-03-02T05:43:52.374Z,40.17
2018-03-02T05:46:21.211Z,36.75
2018-03-02T05:48:50.162Z,40.80
2018-03-02T05:51:19.097Z,34.67
2018-03-02T05:53:47.960Z,43.95
2018-03-02T05:56:16.838Z,39.83
2018-03-02T05:58:46.453Z,34.72
2018-03-02T06:01:15.302Z,37.72
2018-03-02T06:03:44.162Z,55.30
2018-03-02T06:06:13.138Z,44.00
2018-03-02T06:08:42.304Z,38.03
2018-03-02T06:11:12.115Z,40.58
2018-03-02T06:13:41.000Z,40.15
2018-03-02T06:16:10.153Z,40.85
2018-03-02T06:18:38.947Z,40.70
2018-03-02T06:21:07.986Z,45.65
2018-03-02T06:23:37.025Z,38.55
2018-03-02T06:26:05.842Z,34.25
2018-03-02T06:28:34.719Z,38.85
2018-03-02T06:31:03.601Z,33.42
2018-03-02T06:33:32.458Z,31.25
2018-03-02T06:36:02.032Z,32.22
2018-03-02T06:38:31.082Z,86.12
2018-03-02T06:40:59.846Z,31.50
2018-03-02T06:43:29.464Z,40.65
2018-03-02T06:45:58.578Z,26.40
2018-03-02T06:48:27.478Z,36.85
2018-03-02T06:50:56.467Z,27.58
2018-03-02T06:53:25.618Z,28.67
2018-03-02T06:55:55.257Z,36.38
2018-03-02T06:58:24.185Z,24.05
2018-03-02T07:00:53.077Z,28.98
2018-03-02T07:03:22.099Z,31.33
2018-03-02T07:05:51.004Z,64.95
2018-03-02T07:08:20.106Z,30.95
2018-03-02T07:10:49.730Z,32.60
2018-03-02T07:13:18.671Z,34.78
2018-03-02T07:15:48.701Z,28.90
2018-03-02T07:18:18.315Z,29.60
2018-03-02T07:20:48.173Z,42.72
2018-03-02T07:23:17.039Z,34.13
2018-03-02T07:25:46.910Z,36.10
2018-03-02T07:28:15.858Z,74.53
2018-03-02T07:30:44.866Z,42.93
2018-03-02T07:33:14.622Z,28.33
2018-03-02T07:35:44.474Z,36.90
2018-03-02T07:38:13.351Z,49.90
2018-03-02T07:40:42.267Z,36.00
2018-03-02T07:43:11.343Z,31.70
2018-03-02T07:45:40.409Z,30.98
2018-03-02T07:48:10.305Z,34.30
2018-03-02T07:50:39.990Z,32.07
2018-03-02T07:53:08.828Z,27.27
2018-03-02T07:55:38.000Z,27.40
2018-03-02T07:58:07.158Z,36.43
2018-03-02T08:00:36.419Z,22.93
2018-03-02T08:03:06.044Z,24.93
2018-03-02T08:05:34.923Z,24.83
2018-03-02T08:08:03.785Z,30.47
2018-03-02T08:10:33.226Z,62.67
2018-03-02T08:13:02.117Z,58.00
2018-03-02T08:15:31.292Z,43.07
2018-03-02T08:18:01.194Z,54.57
2018-03-02T08:20:30.126Z,40.93
2018-03-02T08:22:59.894Z,35.23
2018-03-02T08:25:28.776Z,27.63
2018-03-02T08:27:57.706Z,59.90
2018-03-02T08:30:27.421Z,42.50
2018-03-02T08:32:56.597Z,56.27
2018-03-02T08:35:25.555Z,28.73
2018-03-02T08:37:54.506Z,31.53
2018-03-02T08:40:23.512Z,32.33
2018-03-02T08:42:52.801Z,29.00
2018-03-02T08:45:21.769Z,29.10
2018-03-02T08:47:51.514Z,52.70
2018-03-02T08:50:20.382Z,32.70
2018-03-02T08:52:49.330Z,34.13
2018-03-02T08:55:19.200Z,37.50
2018-03-02T08:57:48.127Z,53.07
2018-03-02T09:00:17.062Z,66.50
2018-03-02T09:02:46.012Z,101.30
2018-03-02T09:05:16.049Z,45.23
2018-03-02T09:07:45.713Z,63.87
2018-03-02T09:10:14.640Z,41.03
2018-03-02T09:12:43.593Z,35.13
2018-03-02T09:15:12.390Z,31.90
2018-03-02T09:17:43.299Z,48.40
2018-03-02T09:20:12.453Z,55.03
2018-03-02T09:22:41.496Z,95.93
2018-03-02T09:25:10.879Z,33.60
2018-03-02T09:27:40.793Z,50.67
2018-03-02T09:30:09.678Z,46.13
2018-03-02T09:32:38.698Z,40.93
2018-03-02T09:35:07.653Z,53.10
2018-03-02T09:37:36.700Z,33.77
2018-03-02T09:40:05.596Z,91.10
2018-03-02T09:42:35.502Z,59.13
2018-03-02T09:45:04.425Z,76.40
2018-03-02T09:47:33.462Z,32.80
2018-03-02T09:50:03.104Z,40.87
2018-03-02T09:52:32.280Z,33.33
2018-03-02T09:55:02.086Z,40.37
2018-03-02T09:57:31.769Z,34.80
2018-03-02T10:00:00.658Z,38.33
2018-03-02T10:02:30.325Z,45.73
2018-03-02T10:04:59.606Z,87.90
2018-03-02T10:07:28.599Z,35.60
2018-03-02T10:09:57.509Z,46.97
2018-03-02T10:12:26.452Z,40.83
2018-03-02T10:14:55.594Z,34.73
2018-03-02T10:17:24.716Z,41.57
2018-03-02T10:19:53.666Z,72.67
2018-03-02T10:22:22.657Z,34.50
2018-03-02T10:24:52.464Z,57.13
2018-03-02T10:27:22.459Z,79.50
2018-03-02T10:29:51.357Z,127.33
2018-03-02T10:32:21.126Z,83.83
2018-03-02T10:34:50.161Z,43.87
2018-03-02T10:37:19.051Z,41.00
2018-03-02T10:39:48.090Z,57.87
2018-03-02T10:42:17.923Z,37.53
2018-03-02T10:44:47.139Z,50.67
2018-03-02T10:47:16.073Z,54.43
2018-03-02T10:49:45.083Z,26.80
2018-03-02T10:52:14.066Z,23.27
2018-03-02T10:54:42.926Z,31.63
2018-03-02T10:59:46.847Z,68.03
2018-03-02T11:02:21.692Z,42.63
2018-03-02T11:04:56.822Z,25.90
2018-03-02T11:07:25.750Z,20.60
2018-03-02T11:09:54.613Z,22.13
2018-03-02T11:12:24.246Z,51.00
2018-03-02T11:14:54.196Z,26.67
2018-03-02T11:17:23.220Z,52.73
2018-03-02T11:19:52.124Z,53.17
2018-03-02T11:22:21.917Z,27.50
2018-03-02T11:24:50.872Z,28.23
2018-03-02T11:27:19.933Z,25.33
2018-03-02T11:29:48.864Z,29.57
2018-03-02T11:32:19.862Z,24.97
2018-03-02T11:34:49.784Z,24.33
2018-03-02T11:37:18.765Z,35.67
2018-03-02T11:39:47.773Z,49.80
2018-03-02T11:42:17.106Z,49.23
2018-03-02T11:44:46.300Z,47.30
2018-03-02T11:47:15.408Z,42.67
2018-03-02T11:49:44.607Z,34.03
2018-03-02T11:52:14.285Z,36.93
2018-03-02T11:54:43.388Z,32.93
2018-03-02T11:57:12.472Z,39.70
2018-03-02T11:59:42.239Z,37.23
2018-03-02T12:02:11.106Z,39.77
2018-03-02T12:04:40.676Z,54.77
2018-03-02T12:07:09.888Z,41.60
2018-03-02T12:09:38.861Z,80.00
2018-03-02T12:12:07.813Z,38.60
2018-03-02T12:14:36.771Z,48.23
2018-03-02T12:17:05.724Z,30.13
2018-03-02T12:19:34.695Z,32.97
2018-03-02T12:22:03.611Z,63.47
2018-03-02T12:24:33.620Z,45.97
2018-03-02T12:27:03.347Z,27.63
2018-03-02T12:29:32.230Z,63.67
2018-03-02T12:32:01.325Z,29.13
2018-03-02T12:34:30.620Z,23.47
2018-03-02T12:36:59.821Z,36.77
2018-03-02T12:39:28.745Z,42.13
2018-03-02T12:41:57.824Z,62.00
2018-03-02T12:44:26.892Z,45.77
2018-03-02T12:46:55.993Z,37.37
2018-03-02T12:49:25.712Z,33.90
2018-03-02T12:51:54.708Z,25.80
2018-03-02T12:54:23.634Z,28.77
2018-03-02T12:56:53.923Z,32.70
2018-03-02T12:59:23.659Z,19.27
2018-03-02T13:01:53.584Z,32.83
2018-03-02T13:04:22.489Z,37.27
2018-03-02T13:06:52.380Z,31.43
2018-03-02T13:09:21.827Z,25.20
2018-03-02T13:11:51.244Z,26.40
2018-03-02T13:14:20.450Z,30.13
2018-03-02T13:16:49.368Z,55.33
2018-03-02T13:19:18.232Z,31.20
2018-03-02T13:21:47.149Z,33.00
2018-03-02T13:24:16.645Z,30.73
2018-03-02T13:26:57.272Z,23.83
2018-03-02T13:29:26.595Z,23.03
2018-03-02T13:31:55.741Z,33.33
2018-03-02T13:34:36.452Z,33.47
2018-03-02T13:37:05.262Z,22.23
2018-03-02T13:39:46.186Z,32.30
2018-03-02T13:42:16.106Z,30.53
2018-03-02T13:44:45.878Z,29.40
2018-03-02T13:47:14.878Z,37.23
2018-03-02T13:49:55.866Z,44.20
2018-03-02T13:52:24.743Z,35.23
2018-03-02T13:54:53.710Z,43.37
2018-03-02T13:57:34.452Z,48.03
2018-03-02T14:00:03.359Z,43.40
2018-03-02T14:02:44.041Z,45.50
2018-03-02T14:05:12.821Z,47.50
2018-03-02T14:07:41.782Z,42.13
2018-03-02T14:10:11.786Z,44.33
2018-03-02T14:12:41.057Z,78.33
2018-03-02T14:15:10.271Z,128.20
2018-03-02T14:17:39.469Z,87.43
2018-03-02T14:20:08.412Z,106.70
2018-03-02T14:22:37.505Z,123.87
2018-03-02T14:25:06.432Z,72.27
2018-03-02T14:27:36.084Z,90.13
2018-03-02T14:30:04.997Z,88.20
2018-03-02T14:32:33.942Z,119.17
2018-03-02T14:35:03.598Z,110.87
2018-03-02T14:37:33.082Z,93.03
2018-03-02T14:40:01.968Z,95.00
2018-03-02T14:42:30.960Z,90.87
2018-03-02T14:45:00.914Z,93.97
2018-03-02T14:47:29.809Z,128.67
2018-03-02T14:49:58.793Z,136.73
2018-03-02T14:52:27.907Z,109.07
2018-03-02T14:54:57.009Z,108.03
2018-03-02T14:57:25.965Z,92.30
2018-03-02T14:59:55.629Z,97.03
2018-03-02T15:02:24.853Z,90.70
2018-03-02T15:04:53.694Z,99.87
2018-03-02T15:07:22.830Z,190.23
2018-03-02T15:09:51.786Z,213.63
2018-03-02T15:12:20.949Z,195.70
2018-03-02T15:14:50.236Z,136.37
2018-03-02T15:17:20.316Z,108.70
2018-03-02T15:19:49.303Z,90.83
2018-03-02T15:22:18.530Z,83.57
2018-03-02T15:24:47.954Z,94.53
2018-03-02T15:27:16.882Z,89.30
2018-03-02T15:29:46.719Z,100.10
2018-03-02T15:32:15.966Z,57.73
2018-03-02T15:34:44.962Z,58.60
2018-03-02T15:37:13.875Z,62.47
2018-03-02T15:39:43.644Z,64.70
2018-03-02T15:42:13.363Z,118.37
2018-03-02T15:44:43.402Z,141.83
2018-03-02T15:47:12.439Z,113.87
2018-03-02T15:49:42.177Z,125.83
2018-03-02T15:52:11.464Z,127.57
2018-03-02T15:54:40.622Z,70.83
2018-03-02T15:57:09.586Z,99.90
2018-03-02T15:59:38.821Z,94.47
2018-03-02T16:02:07.736Z,99.80
2018-03-02T16:04:36.985Z,91.73
2018-03-02T16:07:05.979Z,103.73
2018-03-02T16:09:35.238Z,95.03
2018-03-02T16:12:04.196Z,99.30
2018-03-02T16:14:33.260Z,105.30
2018-03-02T16:17:02.213Z,76.77
2018-03-02T16:19:32.605Z,66.80
2018-03-02T16:22:02.215Z,94.70
2018-03-02T16:24:31.098Z,74.10
2018-03-02T16:27:00.023Z,81.03
2018-03-02T16:29:30.035Z,65.73
2018-03-02T16:31:58.885Z,79.83
2018-03-02T16:34:28.594Z,106.90
2018-03-02T16:36:57.464Z,76.40
2018-03-02T16:39:26.497Z,62.63
2018-03-02T16:41:55.501Z,55.90
2018-03-02T16:44:24.458Z,54.50
2018-03-02T16:46:53.489Z,49.93
2018-03-02T16:49:23.294Z,52.80
2018-03-02T16:51:52.321Z,52.23
2018-03-02T16:54:21.473Z,35.17
2018-03-02T16:56:50.344Z,36.23
2018-03-02T16:59:19.511Z,36.33
2018-03-02T17:01:49.232Z,33.23
2018-03-02T17:04:19.117Z,39.50
2018-03-02T17:06:48.976Z,47.03
2018-03-02T17:09:18.313Z,64.47
2018-03-02T17:11:47.505Z,90.27
2018-03-02T17:14:17.096Z,48.13
2018-03-02T17:16:46.310Z,58.00
2018-03-02T17:19:15.570Z,40.00
2018-03-02T17:21:44.833Z,73.73
2018-03-02T17:24:13.860Z,86.50
2018-03-02T17:26:43.823Z,41.00
2018-03-02T17:29:12.880Z,64.17
2018-03-02T17:31:41.775Z,44.87
2018-03-02T17:34:10.593Z,32.27
2018-03-02T17:36:39.463Z,39.80
2018-03-02T17:39:08.373Z,44.17
2018-03-02T17:41:37.301Z,51.77
2018-03-02T17:44:06.813Z,47.83
2018-03-02T17:46:35.998Z,33.73
2018-03-02T17:49:05.167Z,29.40
2018-03-02T17:51:34.521Z,24.83
2018-03-02T17:54:03.607Z,33.00
2018-03-02T17:56:33.245Z,27.17
2018-03-02T17:59:03.328Z,27.60
2018-03-02T18:01:33.312Z,26.47
2018-03-02T18:04:02.561Z,27.50
2018-03-02T18:06:32.786Z,62.47
2018-03-02T18:09:02.223Z,25.17
2018-03-02T18:11:32.316Z,28.33
2018-03-02T18:14:02.649Z,22.97
2018-03-02T18:16:32.639Z,23.83
2018-03-02T18:19:02.349Z,25.27
2018-03-02T18:21:31.886Z,23.30
2018-03-02T18:24:01.963Z,21.47
2018-03-02T18:26:31.252Z,60.70
2018-03-02T18:29:00.754Z,29.80
2018-03-02T18:31:30.060Z,19.00
2018-03-02T18:33:59.360Z,29.13
2018-03-02T18:36:28.616Z,28.83
2018-03-02T18:38:57.976Z,72.63
2018-03-02T18:41:28.048Z,52.23
2018-03-02T18:43:57.433Z,80.30
2018-03-02T18:46:26.655Z,52.77
2018-03-02T18:48:56.028Z,41.17
2018-03-02T18:51:25.327Z,38.20
2018-03-02T18:53:54.549Z,75.20
2018-03-02T18:56:24.333Z,51.27
2018-03-02T18:58:53.564Z,46.57
2018-03-02T19:01:22.974Z,26.33
2018-03-02T19:03:52.422Z,23.23
2018-03-02T19:06:22.278Z,19.80
2018-03-02T19:08:52.252Z,32.27
2018-03-02T19:11:21.523Z,25.33
2018-03-02T19:13:50.806Z,22.47
2018-03-02T19:16:20.286Z,20.03
2018-03-02T19:18:49.710Z,20.97
2018-03-02T19:21:19.116Z,42.23
2018-03-02T19:23:48.442Z,23.23
2018-03-02T19:26:18.431Z,22.33
2018-03-02T19:28:47.902Z,18.90
2018-03-02T19:31:17.163Z,25.53
2018-03-02T19:33:46.541Z,20.40
2018-03-02T19:36:16.626Z,115.50
2018-03-02T19:38:45.948Z,37.83
2018-03-02T19:41:15.278Z,28.27
2018-03-02T19:43:44.724Z,42.27
2018-03-02T19:46:14.028Z,25.83
2018-03-02T19:48:43.433Z,77.00
2018-03-02T19:51:12.652Z,79.47
2018-03-02T19:53:42.030Z,70.67
2018-03-02T19:56:11.349Z,125.07
2018-03-02T19:58:41.268Z,72.23
2018-03-02T20:01:10.765Z,86.30
2018-03-02T20:03:40.158Z,64.97
2018-03-02T20:06:09.761Z,44.57
2018-03-02T20:08:39.581Z,45.77
2018-03-02T20:11:10.862Z,44.90
2018-03-02T20:13:40.460Z,47.93
2018-03-02T20:16:09.902Z,43.23
2018-03-02T20:18:39.244Z,66.00
2018-03-02T20:21:08.556Z,62.27
2018-03-02T20:23:40.544Z,64.45
2018-03-02T20:26:10.309Z,43.00
2018-03-02T20:28:39.621Z,36.67
2018-03-02T20:31:10.029Z,42.67
2018-03-02T20:33:39.417Z,33.23
2018-03-02T20:36:08.951Z,14.47
2018-03-02T20:38:38.152Z,21.90
2018-03-02T20:41:07.334Z,17.13
2018-03-02T20:43:37.522Z,20.43
2018-03-02T20:46:06.780Z,16.83
2018-03-02T20:48:36.081Z,16.63
2018-03-02T20:51:05.444Z,42.10
2018-03-02T20:53:34.660Z,103.83
2018-03-02T20:56:03.977Z,83.07
2018-03-02T20:58:33.994Z,48.07
2018-03-02T21:01:03.594Z,41.43
2018-03-02T21:03:33.037Z,22.77
2018-03-02T21:06:03.508Z,20.03
2018-03-02T21:08:32.738Z,18.10
2018-03-02T21:11:02.347Z,16.57
2018-03-02T21:13:32.322Z,11.23
2018-03-02T21:16:01.494Z,18.93
2018-03-02T21:18:30.721Z,22.67
2018-03-02T21:21:00.599Z,21.03
2018-03-02T21:23:29.696Z,14.90
2018-03-02T21:25:59.110Z,13.97
2018-03-02T21:28:28.059Z,16.70
2018-03-02T21:30:57.132Z,14.30
2018-03-02T21:33:25.997Z,17.07
2018-03-02T21:35:55.060Z,15.97
2018-03-02T21:38:24.959Z,17.57
2018-03-02T21:40:53.948Z,14.20
2018-03-02T21:43:22.789Z,16.77
2018-03-02T21:45:52.674Z,18.37
2018-03-02T21:48:21.554Z,22.23
2018-03-02T21:50:51.176Z,11.53
2018-03-02T21:53:20.022Z,23.40
2018-03-02T21:55:49.729Z,15.23
2018-03-02T21:58:19.548Z,18.23
2018-03-02T22:00:48.460Z,11.03
2018-03-02T22:03:19.113Z,11.67
2018-03-02T22:05:48.245Z,17.03
2018-03-02T22:08:17.251Z,16.47
2018-03-02T22:10:46.118Z,12.47
2018-03-02T22:13:15.080Z,17.40
2018-03-02T22:15:44.073Z,15.83
2018-03-02T22:18:13.039Z,18.87
2018-03-02T22:20:42.078Z,22.00
2018-03-02T22:23:11.257Z,21.00
2018-03-02T22:25:40.134Z,14.37
2018-03-02T22:28:09.884Z,57.87
2018-03-02T22:30:39.602Z,31.70
2018-03-02T22:33:08.431Z,24.57
2018-03-02T22:35:37.395Z,25.67
2018-03-02T22:38:06.282Z,14.07
2018-03-02T22:40:35.143Z,15.83
2018-03-02T22:43:04.018Z,18.63
2018-03-02T22:45:33.163Z,23.77
2018-03-02T22:48:02.288Z,22.83
2018-03-02T22:50:32.062Z,26.17
2018-03-02T22:53:03.456Z,27.00
2018-03-02T22:55:35.997Z,31.50
2018-03-02T22:58:08.864Z,38.97
2018-03-02T23:00:40.257Z,43.30
2018-03-02T23:03:12.453Z,95.67
2018-03-02T23:05:44.504Z,24.40
2018-03-02T23:08:16.704Z,12.67
2018-03-02T23:10:48.932Z,17.47
2018-03-02T23:13:24.087Z,22.07
2018-03-02T23:15:54.950Z,11.40
2018-03-02T23:18:23.858Z,12.17
2018-03-02T23:20:54.147Z,11.77
2018-03-02T23:23:23.024Z,13.30
2018-03-02T23:25:52.580Z,18.70
2018-03-02T23:28:21.628Z,93.83
2018-03-02T23:30:50.668Z,10.57
2018-03-02T23:33:20.346Z,9.00
2018-03-02T23:35:49.487Z,8.33
2018-03-02T23:38:18.299Z,9.37
2018-03-02T23:40:47.181Z,8.47
2018-03-02T23:43:16.041Z,12.67
2018-03-02T23:45:44.951Z,14.33
2018-03-02T23:48:13.760Z,65.47
2018-03-02T23:50:43.515Z,14.60
2018-03-02T23:53:12.476Z,115.27
2018-03-02T23:55:41.617Z,121.60
2018-03-02T23:58:10.876Z,160.80
